createdAt,value
2018-01-20T00:02:22.540Z,50.87
2018-01-20T00:04:50.110Z,49.77
2018-01-20T00:07:17.578Z,51.27
2018-01-20T00:09:56.983Z,46.93
2018-01-20T00:12:24.461Z,51.20
2018-01-20T00:14:52.706Z,55.47
2018-01-20T00:17:20.167Z,49.67
2018-01-20T00:19:47.651Z,49.43
2018-01-20T00:22:24.725Z,52.27
2018-01-20T00:24:57.971Z,48.43
2018-01-20T00:27:25.459Z,43.70
2018-01-20T00:29:52.931Z,48.03
2018-01-20T00:32:20.427Z,48.37
2018-01-20T00:34:47.903Z,46.17
2018-01-20T00:37:15.387Z,48.10
2018-01-20T00:39:42.852Z,48.43
2018-01-20T00:42:10.386Z,44.97
2018-01-20T00:44:38.614Z,47.87
2018-01-20T00:47:06.127Z,48.83
2018-01-20T00:49:33.610Z,46.83
2018-01-20T00:52:01.080Z,46.33
2018-01-20T00:54:28.575Z,47.23
2018-01-20T00:56:56.043Z,41.77
2018-01-20T00:59:23.517Z,44.23
2018-01-20T01:01:51.022Z,45.27
2018-01-20T01:04:18.483Z,44.63
2018-01-20T01:06:45.983Z,42.80
2018-01-20T01:09:13.447Z,49.13
2018-01-20T01:11:40.951Z,49.57
2018-01-20T01:14:08.427Z,46.67
2018-01-20T01:16:35.898Z,49.40
2018-01-20T01:19:03.376Z,44.43
2018-01-20T01:21:30.839Z,51.10
2018-01-20T01:23:58.339Z,45.70
2018-01-20T01:26:25.815Z,52.20
2018-01-20T01:28:53.308Z,45.70
2018-01-20T01:31:21.579Z,45.03
2018-01-20T01:33:49.042Z,45.30
2018-01-20T01:36:16.508Z,42.30
2018-01-20T01:38:44.015Z,43.70
2018-01-20T01:41:11.514Z,45.33
2018-01-20T01:43:38.975Z,49.60
2018-01-20T01:46:06.491Z,40.47
2018-01-20T01:48:34.761Z,38.97
2018-01-20T01:51:02.224Z,46.90
2018-01-20T01:53:29.692Z,39.03
2018-01-20T01:55:57.183Z,38.73
2018-01-20T01:58:24.639Z,42.33
2018-01-20T02:00:52.123Z,43.50
2018-01-20T02:03:19.652Z,42.30
2018-01-20T02:05:47.113Z,45.80
2018-01-20T02:08:14.571Z,47.47
2018-01-20T02:10:42.071Z,43.50
2018-01-20T02:13:09.524Z,48.43
2018-01-20T02:15:37.011Z,46.60
2018-01-20T02:18:04.478Z,50.17
2018-01-20T02:20:31.973Z,50.70
2018-01-20T02:22:59.434Z,53.67
2018-01-20T02:25:26.943Z,53.83
2018-01-20T02:27:54.407Z,51.50
2018-01-20T02:30:21.896Z,54.70
2018-01-20T02:32:49.359Z,54.70
2018-01-20T02:35:16.871Z,55.77
2018-01-20T02:37:44.345Z,54.60
2018-01-20T02:40:11.816Z,60.20
2018-01-20T02:42:39.312Z,60.77
2018-01-20T02:45:06.807Z,74.23
2018-01-20T02:47:34.271Z,62.90
2018-01-20T02:50:01.775Z,69.17
2018-01-20T02:52:29.243Z,62.03
2018-01-20T02:54:56.738Z,65.13
2018-01-20T02:57:24.213Z,72.00
2018-01-20T02:59:51.703Z,65.87
2018-01-20T03:02:19.167Z,66.20
2018-01-20T03:04:46.656Z,67.03
2018-01-20T03:07:14.135Z,73.73
2018-01-20T03:09:41.614Z,65.80
2018-01-20T03:12:09.102Z,74.20
2018-01-20T03:14:37.332Z,66.23
2018-01-20T03:17:04.802Z,70.10
2018-01-20T03:19:32.295Z,73.87
2018-01-20T03:21:59.784Z,64.67
2018-01-20T03:24:27.266Z,67.80
2018-01-20T03:26:54.738Z,73.17
2018-01-20T03:29:22.253Z,66.27
2018-01-20T03:31:49.720Z,75.00
2018-01-20T03:34:17.191Z,73.27
2018-01-20T03:36:44.687Z,71.33
2018-01-20T03:39:12.147Z,74.97
2018-01-20T03:41:39.637Z,81.13
2018-01-20T03:44:07.102Z,74.50
2018-01-20T03:46:34.599Z,78.60
2018-01-20T03:49:02.039Z,73.40
2018-01-20T03:51:29.498Z,73.77
2018-01-20T03:53:56.938Z,69.90
2018-01-20T03:56:24.399Z,72.60
2018-01-20T03:58:51.870Z,71.93
2018-01-20T04:01:19.346Z,69.00
2018-01-20T04:03:46.778Z,69.20
2018-01-20T04:06:14.242Z,76.97
2018-01-20T04:08:41.698Z,83.30
2018-01-20T04:11:09.143Z,64.90
2018-01-20T04:13:37.368Z,72.93
2018-01-20T04:16:04.812Z,77.23
2018-01-20T04:18:32.278Z,75.77
2018-01-20T04:20:59.732Z,73.33
2018-01-20T04:23:27.225Z,74.90
2018-01-20T04:25:54.690Z,75.80
2018-01-20T04:28:22.143Z,71.63
2018-01-20T04:30:49.610Z,71.73
2018-01-20T04:33:17.816Z,70.27
2018-01-20T04:35:45.275Z,71.47
2018-01-20T04:38:14.347Z,71.30
2018-01-20T04:40:41.834Z,65.70
2018-01-20T04:43:09.272Z,70.00
2018-01-20T04:45:36.726Z,66.60
2018-01-20T04:48:04.933Z,77.13
2018-01-20T04:50:33.166Z,67.13
2018-01-20T04:53:00.618Z,68.20
2018-01-20T04:55:28.095Z,70.10
2018-01-20T04:57:56.302Z,68.30
2018-01-20T05:00:23.747Z,72.23
2018-01-20T05:02:51.207Z,62.00
2018-01-20T05:05:18.642Z,68.40
2018-01-20T05:07:46.114Z,70.93
2018-01-20T05:10:13.565Z,68.60
2018-01-20T05:12:41.003Z,67.53
2018-01-20T05:15:08.491Z,69.27
2018-01-20T05:17:36.046Z,67.97
2018-01-20T05:20:03.488Z,66.53
2018-01-20T05:22:30.930Z,65.87
2018-01-20T05:24:58.410Z,63.37
2018-01-20T05:27:25.863Z,61.80
2018-01-20T05:29:53.322Z,74.63
2018-01-20T05:32:21.552Z,68.70
2018-01-20T05:34:48.990Z,68.93
2018-01-20T05:37:17.259Z,71.23
2018-01-20T05:39:44.719Z,67.07
2018-01-20T05:42:12.162Z,74.90
2018-01-20T05:44:39.615Z,75.53
2018-01-20T05:47:07.085Z,77.33
2018-01-20T05:49:34.535Z,69.77
2018-01-20T05:52:01.983Z,81.00
2018-01-20T05:54:30.209Z,77.57
2018-01-20T05:56:57.684Z,75.80
2018-01-20T05:59:25.123Z,78.23
2018-01-20T06:01:53.359Z,77.67
2018-01-20T06:04:20.798Z,73.20
2018-01-20T06:06:49.034Z,78.20
2018-01-20T06:09:16.488Z,75.93
2018-01-20T06:11:44.686Z,81.27
2018-01-20T06:14:12.903Z,75.20
2018-01-20T06:16:40.367Z,65.93
2018-01-20T06:19:07.798Z,78.00
2018-01-20T06:21:35.259Z,67.60
2018-01-20T06:24:02.738Z,73.00
2018-01-20T06:26:30.946Z,66.53
2018-01-20T06:28:58.376Z,68.27
2018-01-20T06:31:25.828Z,66.53
2018-01-20T06:33:53.258Z,64.93
2018-01-20T06:36:20.707Z,75.07
2018-01-20T06:38:48.947Z,71.53
2018-01-20T06:41:16.390Z,72.10
2018-01-20T06:43:43.844Z,73.37
2018-01-20T06:46:11.556Z,80.93
2018-01-20T06:48:39.744Z,82.13
2018-01-20T06:51:07.974Z,92.10
2018-01-20T06:53:35.410Z,74.03
2018-01-20T06:56:03.627Z,87.70
2018-01-20T06:58:31.110Z,83.87
2018-01-20T07:00:58.554Z,83.63
2018-01-20T07:03:26.011Z,80.73
2018-01-20T07:05:53.474Z,83.40
2018-01-20T07:08:20.941Z,80.63
2018-01-20T07:10:48.384Z,69.07
2018-01-20T07:13:16.616Z,80.00
2018-01-20T07:15:44.082Z,73.67
2018-01-20T07:18:11.519Z,75.73
2018-01-20T07:20:38.975Z,80.20
2018-01-20T07:23:06.419Z,71.83
2018-01-20T07:25:33.906Z,69.17
2018-01-20T07:28:02.098Z,70.57
2018-01-20T07:30:29.574Z,70.60
2018-01-20T07:32:57.027Z,66.13
2018-01-20T07:35:24.467Z,69.60
2018-01-20T07:37:51.929Z,71.40
2018-01-20T07:40:19.372Z,70.03
2018-01-20T07:42:47.599Z,66.47
2018-01-20T07:45:15.038Z,67.23
2018-01-20T07:47:42.522Z,68.83
2018-01-20T07:50:09.954Z,67.30
2018-01-20T07:52:37.426Z,71.97
2018-01-20T07:55:04.867Z,61.27
2018-01-20T07:57:33.076Z,63.57
2018-01-20T08:00:01.418Z,59.43
2018-01-20T08:02:28.879Z,58.47
2018-01-20T08:04:56.391Z,69.87
2018-01-20T08:07:24.548Z,62.67
2018-01-20T08:09:52.024Z,65.97
2018-01-20T08:12:19.468Z,66.57
2018-01-20T08:14:46.918Z,63.80
2018-01-20T08:17:15.247Z,70.37
2018-01-20T08:19:42.692Z,63.67
2018-01-20T08:22:10.158Z,65.97
2018-01-20T08:24:37.655Z,69.00
2018-01-20T08:27:05.107Z,67.97
2018-01-20T08:29:32.559Z,65.90
2018-01-20T08:32:00.032Z,68.03
2018-01-20T08:34:27.470Z,72.03
2018-01-20T08:36:54.910Z,62.53
2018-01-20T08:39:23.131Z,69.93
2018-01-20T08:41:50.566Z,61.90
2018-01-20T08:44:18.039Z,60.00
2018-01-20T08:46:45.518Z,59.80
2018-01-20T08:49:12.967Z,62.27
2018-01-20T08:51:40.411Z,61.50
2018-01-20T08:54:07.903Z,66.73
2018-01-20T08:56:35.362Z,60.50
2018-01-20T08:59:03.586Z,59.67
2018-01-20T09:01:31.054Z,58.93
2018-01-20T09:03:58.488Z,59.07
2018-01-20T09:06:25.965Z,59.77
2018-01-20T09:08:53.439Z,61.60
2018-01-20T09:11:21.663Z,58.30
2018-01-20T09:13:49.121Z,63.93
2018-01-20T09:16:16.579Z,61.43
2018-01-20T09:18:44.039Z,55.83
2018-01-20T09:21:11.526Z,61.60
2018-01-20T09:23:39.601Z,64.57
2018-01-20T09:26:07.078Z,62.97
2018-01-20T09:28:35.286Z,58.63
2018-01-20T09:31:02.755Z,59.33
2018-01-20T09:33:30.219Z,59.43
2018-01-20T09:35:58.427Z,53.80
2018-01-20T09:38:25.882Z,55.80
2018-01-20T09:40:53.360Z,63.23
2018-01-20T09:43:20.798Z,56.80
2018-01-20T09:45:48.242Z,54.73
2018-01-20T09:48:16.468Z,51.77
2018-01-20T09:50:43.965Z,55.40
2018-01-20T09:53:12.165Z,49.13
2018-01-20T09:55:39.606Z,55.57
2018-01-20T09:58:07.070Z,48.77
2018-01-20T10:00:35.280Z,48.70
2018-01-20T10:03:03.517Z,44.33
2018-01-20T10:05:31.743Z,45.37
2018-01-20T10:07:59.212Z,44.23
2018-01-20T10:10:26.688Z,44.27
2018-01-20T10:12:54.167Z,41.97
2018-01-20T10:15:21.618Z,41.00
2018-01-20T10:17:49.078Z,40.37
2018-01-20T10:20:16.535Z,38.30
2018-01-20T10:22:44.766Z,37.67
2018-01-20T10:25:12.228Z,34.43
2018-01-20T10:27:39.679Z,35.47
2018-01-20T10:30:07.156Z,29.20
2018-01-20T10:32:34.630Z,32.53
2018-01-20T10:35:02.137Z,36.30
2018-01-20T10:37:30.354Z,35.90
2018-01-20T10:39:58.705Z,34.30
2018-01-20T10:42:26.160Z,37.93
2018-01-20T10:44:53.619Z,44.07
2018-01-20T10:47:21.087Z,39.27
2018-01-20T10:49:48.568Z,42.73
2018-01-20T10:52:16.031Z,39.23
2018-01-20T10:54:44.234Z,38.17
2018-01-20T10:57:12.468Z,41.03
2018-01-20T10:59:39.923Z,41.00
2018-01-20T11:02:07.396Z,40.83
2018-01-20T11:04:34.865Z,39.13
2018-01-20T11:07:03.098Z,38.27
2018-01-20T11:09:30.558Z,41.10
2018-01-20T11:11:58.027Z,39.73
2018-01-20T11:14:25.471Z,40.20
2018-01-20T11:16:54.684Z,40.73
2018-01-20T11:19:22.143Z,38.97
2018-01-20T11:21:49.604Z,44.57
2018-01-20T11:24:17.047Z,43.80
2018-01-20T11:26:45.278Z,40.93
2018-01-20T11:29:12.734Z,40.83
2018-01-20T11:31:40.222Z,37.10
2018-01-20T11:34:07.721Z,42.50
2018-01-20T11:36:35.890Z,40.93
2018-01-20T11:39:04.130Z,42.13
2018-01-20T11:41:31.571Z,45.70
2018-01-20T11:43:59.798Z,42.00
2018-01-20T11:46:27.747Z,46.27
2018-01-20T11:48:55.966Z,44.97
2018-01-20T11:51:23.432Z,47.30
2018-01-20T11:53:51.638Z,46.33
2018-01-20T11:56:19.116Z,40.70
2018-01-20T11:58:46.553Z,43.60
2018-01-20T12:01:14.022Z,42.97
2018-01-20T12:03:41.475Z,43.90
2018-01-20T12:06:08.949Z,39.93
2018-01-20T12:08:36.437Z,38.77
2018-01-20T12:11:03.880Z,39.03
2018-01-20T12:13:32.117Z,42.40
2018-01-20T12:15:59.575Z,44.17
2018-01-20T12:18:27.048Z,44.30
2018-01-20T12:20:55.255Z,49.00
2018-01-20T12:23:22.719Z,43.67
2018-01-20T12:25:50.938Z,43.50
2018-01-20T12:28:18.382Z,41.23
2018-01-20T12:30:46.623Z,41.93
2018-01-20T12:33:14.084Z,46.40
2018-01-20T12:35:42.375Z,47.10
2018-01-20T12:38:10.589Z,41.80
2018-01-20T12:40:38.051Z,37.50
2018-01-20T12:43:05.530Z,44.97
2018-01-20T12:45:33.755Z,38.67
2018-01-20T12:48:01.198Z,45.67
2018-01-20T12:50:29.426Z,43.40
2018-01-20T12:52:56.887Z,37.20
2018-01-20T12:55:24.358Z,39.00
2018-01-20T12:57:52.610Z,39.20
2018-01-20T13:00:20.058Z,45.00
2018-01-20T13:02:47.623Z,36.97
2018-01-20T13:05:15.090Z,42.70
2018-01-20T13:07:43.306Z,38.67
2018-01-20T13:10:10.792Z,42.97
2018-01-20T13:12:39.005Z,41.60
2018-01-20T13:15:06.460Z,41.07
2018-01-20T13:17:34.520Z,38.53
2018-01-20T13:20:03.256Z,40.90
2018-01-20T13:22:31.467Z,39.90
2018-01-20T13:24:58.940Z,44.40
2018-01-20T13:27:26.414Z,41.33
2018-01-20T13:29:53.875Z,42.50
2018-01-20T13:32:22.202Z,43.27
2018-01-20T13:34:49.648Z,48.00
2018-01-20T13:37:17.134Z,39.97
2018-01-20T13:39:44.555Z,46.90
2018-01-20T13:42:12.022Z,50.27
2018-01-20T13:44:39.506Z,51.17
2018-01-20T13:47:07.832Z,50.20
2018-01-20T13:49:35.306Z,43.33
2018-01-20T13:52:02.775Z,48.37
2018-01-20T13:54:30.219Z,47.20
2018-01-20T13:56:58.452Z,41.70
2018-01-20T13:59:25.907Z,45.80
2018-01-20T14:01:53.385Z,48.10
2018-01-20T14:04:21.657Z,48.90
2018-01-20T14:06:49.162Z,45.73
2018-01-20T14:09:17.407Z,52.10
2018-01-20T14:11:44.910Z,45.90
2018-01-20T14:14:12.355Z,51.43
2018-01-20T14:16:39.806Z,44.07
2018-01-20T14:19:07.287Z,46.13
2018-01-20T14:21:34.749Z,48.97
2018-01-20T14:24:03.000Z,49.33
2018-01-20T14:26:30.432Z,46.90
2018-01-20T14:28:58.678Z,49.30
2018-01-20T14:31:26.118Z,51.00
2018-01-20T14:33:53.566Z,47.30
2018-01-20T14:36:21.034Z,45.77
2018-01-20T14:38:48.519Z,42.53
2018-01-20T14:41:15.992Z,43.10
2018-01-20T14:43:43.460Z,47.33
2018-01-20T14:46:10.918Z,49.60
2018-01-20T14:48:38.360Z,46.90
2018-01-20T14:51:06.695Z,49.60
2018-01-20T14:53:34.163Z,50.27
2018-01-20T14:56:01.645Z,47.33
2018-01-20T14:58:29.119Z,44.70
2018-01-20T15:00:57.323Z,50.53
2018-01-20T15:03:24.833Z,47.47
2018-01-20T15:05:52.313Z,46.80
2018-01-20T15:08:20.273Z,55.80
2018-01-20T15:10:48.702Z,49.43
2018-01-20T15:13:16.171Z,45.43
2018-01-20T15:15:43.630Z,51.63
2018-01-20T15:18:11.103Z,48.03
2018-01-20T15:20:39.607Z,50.27
2018-01-20T15:23:07.066Z,47.60
2018-01-20T15:25:34.524Z,52.97
2018-01-20T15:28:02.967Z,56.23
2018-01-20T15:30:31.177Z,53.20
2018-01-20T15:32:58.660Z,55.33
2018-01-20T15:35:26.146Z,61.37
2018-01-20T15:37:54.583Z,54.37
2018-01-20T15:40:22.773Z,51.57
2018-01-20T15:42:51.236Z,54.13
2018-01-20T15:45:18.706Z,54.90
2018-01-20T15:47:46.165Z,63.77
2018-01-20T15:50:15.323Z,55.03
2018-01-20T15:52:43.441Z,60.80
2018-01-20T15:55:10.930Z,56.17
2018-01-20T15:57:39.310Z,58.97
2018-01-20T16:00:08.230Z,60.17
2018-01-20T16:02:35.699Z,66.43
2018-01-20T16:05:03.246Z,61.00
2018-01-20T16:07:31.484Z,63.73
2018-01-20T16:09:58.971Z,62.97
2018-01-20T16:12:27.429Z,67.87
2018-01-20T16:14:56.353Z,64.57
2018-01-20T16:17:23.854Z,64.83
2018-01-20T16:19:51.683Z,64.97
2018-01-20T16:22:19.149Z,67.07
2018-01-20T16:24:46.620Z,66.60
2018-01-20T16:27:14.068Z,67.90
2018-01-20T16:29:41.589Z,65.10
2018-01-20T16:32:09.005Z,64.70
2018-01-20T16:34:36.487Z,62.50
2018-01-20T16:37:03.945Z,73.77
2018-01-20T16:39:31.452Z,71.53
2018-01-20T16:41:59.681Z,66.00
2018-01-20T16:44:27.186Z,60.90
2018-01-20T16:46:54.631Z,61.17
2018-01-20T16:49:22.115Z,73.43
2018-01-20T16:51:49.591Z,69.17
2018-01-20T16:54:17.031Z,70.33
2018-01-20T16:56:45.269Z,69.07
2018-01-20T16:59:15.751Z,71.23
2018-01-20T17:01:43.200Z,67.87
2018-01-20T17:04:11.161Z,74.50
2018-01-20T17:06:39.385Z,72.87
2018-01-20T17:09:06.886Z,81.63
2018-01-20T17:11:34.331Z,74.90
2018-01-20T17:14:01.818Z,66.50
2018-01-20T17:16:30.023Z,78.77
2018-01-20T17:18:57.482Z,73.07
2018-01-20T17:21:24.971Z,76.50
2018-01-20T17:23:52.435Z,70.33
2018-01-20T17:26:20.934Z,74.10
2018-01-20T17:28:50.090Z,71.30
2018-01-20T17:31:17.584Z,68.90
2018-01-20T17:33:45.836Z,73.80
2018-01-20T17:36:14.125Z,69.83
2018-01-20T17:38:42.952Z,64.23
2018-01-20T17:41:10.417Z,70.17
2018-01-20T17:43:39.930Z,77.83
2018-01-20T17:46:07.400Z,75.33
2018-01-20T17:48:34.883Z,68.47
2018-01-20T17:51:04.012Z,73.63
2018-01-20T17:53:32.253Z,75.90
2018-01-20T17:56:00.562Z,65.77
2018-01-20T17:58:28.304Z,71.40
2018-01-20T18:00:56.560Z,82.30
2018-01-20T18:03:25.525Z,71.23
2018-01-20T18:05:52.991Z,85.27
2018-01-20T18:08:20.452Z,76.37
2018-01-20T18:10:47.968Z,85.53
2018-01-20T18:13:15.421Z,79.93
2018-01-20T18:15:43.690Z,79.73
2018-01-20T18:18:11.167Z,82.37
2018-01-20T18:20:38.686Z,88.23
2018-01-20T18:23:06.898Z,83.23
2018-01-20T18:25:34.416Z,89.17
2018-01-20T18:28:03.717Z,84.40
2018-01-20T18:30:31.170Z,85.93
2018-01-20T18:32:59.428Z,79.23
2018-01-20T18:35:26.882Z,85.87
2018-01-20T18:37:54.361Z,85.43
2018-01-20T18:40:21.823Z,89.43
2018-01-20T18:42:49.282Z,89.73
2018-01-20T18:45:19.242Z,95.73
2018-01-20T18:47:46.686Z,94.23
2018-01-20T18:50:14.938Z,92.53
2018-01-20T18:52:42.410Z,93.03
2018-01-20T18:55:10.535Z,92.97
2018-01-20T18:57:37.998Z,97.30
2018-01-20T19:00:05.501Z,92.40
2018-01-20T19:02:33.831Z,97.97
2018-01-20T19:05:02.085Z,92.27
2018-01-20T19:07:29.608Z,92.67
2018-01-20T19:09:58.213Z,95.97
2018-01-20T19:12:27.288Z,93.40
2018-01-20T19:14:54.742Z,100.67
2018-01-20T19:17:22.619Z,91.80
2018-01-20T19:19:50.083Z,95.93
2018-01-20T19:22:17.595Z,101.30
2018-01-20T19:24:46.295Z,100.97
2018-01-20T19:27:13.759Z,107.60
2018-01-20T19:29:41.228Z,99.67
2018-01-20T19:32:10.192Z,95.87
2018-01-20T19:34:37.690Z,102.03
2018-01-20T19:37:05.976Z,94.00
2018-01-20T19:39:33.440Z,92.73
2018-01-20T19:42:01.420Z,95.10
2018-01-20T19:44:29.813Z,87.03
2018-01-20T19:46:57.329Z,85.50
2018-01-20T19:49:24.819Z,91.43
2018-01-20T19:51:52.352Z,78.13
2018-01-20T19:54:20.837Z,84.33
2018-01-20T19:56:50.772Z,85.53
2018-01-20T19:59:20.622Z,82.50
2018-01-20T20:01:48.113Z,88.00
2018-01-20T20:04:15.574Z,80.57
2018-01-20T20:06:44.724Z,87.10
2018-01-20T20:09:14.787Z,79.57
2018-01-20T20:11:43.968Z,78.53
2018-01-20T20:14:11.510Z,85.40
2018-01-20T20:16:39.743Z,87.03
2018-01-20T20:19:08.071Z,86.87
2018-01-20T20:21:35.581Z,91.97
2018-01-20T20:24:03.927Z,90.03
2018-01-20T20:26:32.446Z,88.43
2018-01-20T20:28:59.929Z,90.87
2018-01-20T20:31:27.394Z,99.40
2018-01-20T20:33:55.463Z,99.50
2018-01-20T20:36:23.441Z,99.03
2018-01-20T20:38:52.306Z,100.97
2018-01-20T20:41:20.339Z,97.57
2018-01-20T20:43:49.429Z,101.00
2018-01-20T20:46:16.936Z,113.50
2018-01-20T20:48:46.931Z,107.73
2018-01-20T20:51:14.401Z,106.00
2018-01-20T20:53:41.898Z,102.77
2018-01-20T20:56:09.794Z,107.93
2018-01-20T20:58:39.543Z,111.27
2018-01-20T21:01:07.139Z,115.17
2018-01-20T21:03:36.015Z,105.07
2018-01-20T21:06:03.511Z,111.90
2018-01-20T21:08:31.785Z,110.80
2018-01-20T21:11:00.033Z,120.47
2018-01-20T21:13:28.132Z,115.53
2018-01-20T21:15:55.607Z,125.47
2018-01-20T21:18:23.105Z,118.60
2018-01-20T21:20:50.576Z,119.37
2018-01-20T21:23:18.041Z,109.27
2018-01-20T21:25:46.298Z,107.17
2018-01-20T21:28:13.769Z,96.87
2018-01-20T21:30:41.265Z,98.40
2018-01-20T21:33:08.766Z,110.43
2018-01-20T21:35:36.347Z,99.87
2018-01-20T21:38:04.588Z,98.23
2018-01-20T21:40:32.054Z,100.40
2018-01-20T21:43:02.590Z,114.53
2018-01-20T21:45:30.060Z,85.20
2018-01-20T21:47:58.910Z,83.10
2018-01-20T21:50:26.365Z,101.53
2018-01-20T21:52:53.845Z,98.00
2018-01-20T21:55:21.335Z,91.57
2018-01-20T21:57:48.900Z,89.40
2018-01-20T22:00:17.140Z,99.60
2018-01-20T22:02:45.525Z,99.87
2018-01-20T22:05:13.865Z,98.40
2018-01-20T22:07:41.318Z,94.63
2018-01-20T22:10:08.802Z,98.70
2018-01-20T22:12:36.273Z,99.57
2018-01-20T22:15:04.675Z,100.97
2018-01-20T22:17:32.129Z,96.70
2018-01-20T22:19:59.599Z,94.83
2018-01-20T22:22:27.835Z,95.40
2018-01-20T22:24:55.303Z,99.47
2018-01-20T22:27:22.760Z,106.20
2018-01-20T22:29:50.222Z,121.83
2018-01-20T22:32:18.435Z,108.33
2018-01-20T22:34:46.582Z,107.17
2018-01-20T22:37:14.038Z,99.63
2018-01-20T22:39:41.482Z,102.87
2018-01-20T22:42:08.980Z,96.03
2018-01-20T22:44:36.450Z,108.97
2018-01-20T22:47:03.907Z,101.77
2018-01-20T22:49:32.131Z,116.97
2018-01-20T22:51:59.608Z,114.97
2018-01-20T22:54:27.046Z,122.83
2018-01-20T22:56:54.495Z,107.70
2018-01-20T22:59:21.962Z,113.57
2018-01-20T23:01:49.407Z,102.37
2018-01-20T23:04:17.638Z,97.90
2018-01-20T23:06:45.101Z,98.30
2018-01-20T23:09:12.630Z,100.57
2018-01-20T23:11:40.100Z,110.77
2018-01-20T23:14:07.563Z,104.53
2018-01-20T23:16:35.036Z,108.07
2018-01-20T23:19:02.598Z,104.17
2018-01-20T23:21:30.093Z,122.83
2018-01-20T23:23:57.546Z,105.67
2018-01-20T23:26:25.778Z,110.20
2018-01-20T23:28:53.238Z,111.20
2018-01-20T23:31:20.723Z,108.90
2018-01-20T23:33:48.202Z,128.77
2018-01-20T23:36:15.673Z,121.03
2018-01-20T23:38:43.879Z,99.63
2018-01-20T23:41:11.360Z,141.20
2018-01-20T23:43:38.810Z,134.23
2018-01-20T23:46:07.024Z,107.10
2018-01-20T23:48:35.243Z,95.27
2018-01-20T23:51:02.714Z,119.50
2018-01-20T23:53:30.158Z,121.20
2018-01-20T23:55:57.659Z,116.87
2018-01-20T23:58:25.903Z,112.23
